createdAt,value
2022-12-03T00:00:37.473Z,11.18
2022-12-03T00:03:05.922Z,11.32
2022-12-03T00:05:33.361Z,12.27
2022-12-03T00:08:00.696Z,12.05
2022-12-03T00:10:28.503Z,11.70
2022-12-03T00:12:55.626Z,12.75
2022-12-03T00:15:23.327Z,11.63
2022-12-03T00:17:53.025Z,12.48
2022-12-03T00:20:22.328Z,12.73
2022-12-03T00:22:49.740Z,12.27
2022-12-03T00:25:18.037Z,11.75
2022-12-03T00:27:45.315Z,11.77
2022-12-03T00:30:12.722Z,11.35
2022-12-03T00:32:40.167Z,12.63
2022-12-03T00:35:07.531Z,12.65
2022-12-03T00:37:35.426Z,12.68
2022-12-03T00:40:03.511Z,12.52
2022-12-03T00:42:30.535Z,12.15
2022-12-03T00:44:57.550Z,12.73
2022-12-03T00:47:24.697Z,12.27
2022-12-03T00:49:51.844Z,12.77
2022-12-03T00:52:19.263Z,12.50
2022-12-03T00:54:46.507Z,12.43
2022-12-03T00:57:16.335Z,11.80
2022-12-03T00:59:43.476Z,12.38
2022-12-03T01:02:11.006Z,13.40
2022-12-03T01:04:38.636Z,12.38
2022-12-03T01:07:05.836Z,13.00
2022-12-03T01:09:33.348Z,12.30
2022-12-03T01:12:00.635Z,12.57
2022-12-03T01:14:27.737Z,12.35
2022-12-03T01:16:54.836Z,12.05
2022-12-03T01:19:21.976Z,11.85
2022-12-03T01:21:50.521Z,12.90
2022-12-03T01:24:18.043Z,12.88
2022-12-03T01:26:45.496Z,12.43
2022-12-03T01:29:12.854Z,9.88
2022-12-03T01:31:59.358Z,12.02
2022-12-03T01:34:26.848Z,13.57
2022-12-03T01:36:54.417Z,12.45
2022-12-03T01:39:21.535Z,11.93
2022-12-03T01:41:49.694Z,12.90
2022-12-03T01:44:31.502Z,11.77
2022-12-03T01:47:00.477Z,12.38
2022-12-03T01:49:36.678Z,12.32
2022-12-03T01:52:04.315Z,12.00
2022-12-03T01:54:43.354Z,12.55
2022-12-03T01:57:22.400Z,13.05
2022-12-03T01:59:50.479Z,13.15
2022-12-03T02:02:28.899Z,13.27
2022-12-03T02:04:56.593Z,11.70
2022-12-03T02:07:26.656Z,12.88
2022-12-03T02:09:54.578Z,12.50
2022-12-03T02:12:24.535Z,12.23
2022-12-03T02:14:55.623Z,12.73
2022-12-03T02:17:23.455Z,12.25
2022-12-03T02:19:50.687Z,13.77
2022-12-03T02:22:41.370Z,12.68
2022-12-03T02:25:12.875Z,13.25
2022-12-03T02:27:43.581Z,13.45
2022-12-03T02:30:11.563Z,13.02
2022-12-03T02:32:39.104Z,12.95
2022-12-03T02:35:06.692Z,12.48
2022-12-03T02:37:35.751Z,13.63
2022-12-03T02:40:09.729Z,12.27
2022-12-03T02:42:38.331Z,13.30
2022-12-03T02:45:08.693Z,12.57
2022-12-03T02:47:37.811Z,12.90
2022-12-03T02:50:05.862Z,12.60
2022-12-03T02:52:33.359Z,13.95
2022-12-03T02:55:00.769Z,13.13
2022-12-03T02:57:28.552Z,12.40
2022-12-03T02:59:56.310Z,12.68
2022-12-03T03:02:23.593Z,12.98
2022-12-03T03:04:51.674Z,12.68
2022-12-03T03:07:19.305Z,13.10
2022-12-03T03:09:46.702Z,11.82
2022-12-03T03:12:13.778Z,13.20
2022-12-03T03:14:40.987Z,13.43
2022-12-03T03:17:09.305Z,13.75
2022-12-03T03:19:36.540Z,12.85
2022-12-03T03:22:04.622Z,13.48
2022-12-03T03:24:32.796Z,13.05
2022-12-03T03:26:59.882Z,12.27
2022-12-03T03:29:27.208Z,14.65
2022-12-03T03:31:54.878Z,13.52
2022-12-03T03:34:25.503Z,13.10
2022-12-03T03:36:52.762Z,13.63
2022-12-03T03:39:19.933Z,13.95
2022-12-03T03:41:47.365Z,14.00
2022-12-03T03:44:14.762Z,12.70
2022-12-03T03:46:41.984Z,13.20
2022-12-03T03:49:10.735Z,14.73
2022-12-03T03:51:41.936Z,14.18
2022-12-03T03:54:09.352Z,14.73
2022-12-03T03:56:36.513Z,14.02
2022-12-03T03:59:04.539Z,15.18
2022-12-03T04:01:32.511Z,14.85
2022-12-03T04:04:00.482Z,15.70
2022-12-03T04:06:27.922Z,14.82
2022-12-03T04:08:55.742Z,14.88
2022-12-03T04:11:41.457Z,14.73
2022-12-03T04:14:08.667Z,14.85
2022-12-03T04:16:35.763Z,14.65
2022-12-03T04:19:02.802Z,14.20
2022-12-03T04:21:49.284Z,13.55
2022-12-03T04:24:16.672Z,14.38
2022-12-03T04:27:02.719Z,15.63
2022-12-03T04:29:29.809Z,14.95
2022-12-03T04:32:15.601Z,14.02
2022-12-03T04:35:01.783Z,13.75
2022-12-03T04:37:29.212Z,15.15
2022-12-03T04:39:56.378Z,14.70
2022-12-03T04:42:23.506Z,15.35
2022-12-03T04:44:51.040Z,14.10
2022-12-03T04:47:19.887Z,12.63
2022-12-03T04:49:48.334Z,12.75
2022-12-03T04:52:16.598Z,13.93
2022-12-03T04:54:44.073Z,12.35
2022-12-03T04:57:11.591Z,13.02
2022-12-03T04:59:42.388Z,13.20
2022-12-03T05:02:10.621Z,13.57
2022-12-03T05:04:37.886Z,14.45
2022-12-03T05:07:05.134Z,12.40
2022-12-03T05:09:32.279Z,13.27
2022-12-03T05:11:59.367Z,13.02
2022-12-03T05:14:26.390Z,13.25
2022-12-03T05:16:53.584Z,14.35
2022-12-03T05:19:21.404Z,14.27
2022-12-03T05:21:48.474Z,14.10
2022-12-03T05:24:15.754Z,15.23
2022-12-03T05:26:42.911Z,14.57
2022-12-03T05:29:10.325Z,14.88
2022-12-03T05:31:37.463Z,13.82
2022-12-03T05:34:04.487Z,14.07
2022-12-03T05:36:32.464Z,14.43
2022-12-03T05:38:59.504Z,14.32
2022-12-03T05:41:45.427Z,14.25
2022-12-03T05:44:16.237Z,14.57
2022-12-03T05:46:47.248Z,15.13
2022-12-03T05:49:14.363Z,13.48
2022-12-03T05:51:43.319Z,14.18
2022-12-03T05:54:13.515Z,13.57
2022-12-03T05:56:40.645Z,15.32
2022-12-03T05:59:07.957Z,14.00
2022-12-03T06:01:35.442Z,14.80
2022-12-03T06:04:02.940Z,14.32
2022-12-03T06:06:30.199Z,14.63
2022-12-03T06:08:57.539Z,13.80
2022-12-03T06:11:24.607Z,14.02
2022-12-03T06:13:54.190Z,13.27
2022-12-03T06:16:21.300Z,13.75
2022-12-03T06:18:48.682Z,14.40
2022-12-03T06:21:15.776Z,14.10
2022-12-03T06:23:44.786Z,14.40
2022-12-03T06:26:13.394Z,11.38
2022-12-03T06:28:41.269Z,13.48
2022-12-03T06:31:08.504Z,12.70
2022-12-03T06:33:35.966Z,13.60
2022-12-03T06:36:03.070Z,13.20
2022-12-03T06:38:30.253Z,13.07
2022-12-03T06:40:57.321Z,12.43
2022-12-03T06:43:24.446Z,12.68
2022-12-03T06:45:51.958Z,12.80
2022-12-03T06:48:19.383Z,13.98
2022-12-03T06:50:46.442Z,14.30
2022-12-03T06:53:13.506Z,13.18
2022-12-03T06:55:40.631Z,13.82
2022-12-03T06:58:07.827Z,12.57
2022-12-03T07:00:35.535Z,14.48
2022-12-03T07:03:02.609Z,14.00
2022-12-03T07:05:30.400Z,13.27
2022-12-03T07:07:58.171Z,14.30
2022-12-03T07:10:25.472Z,13.75
2022-12-03T07:12:55.168Z,13.30
2022-12-03T07:15:22.403Z,14.75
2022-12-03T07:17:49.763Z,12.45
2022-12-03T07:20:17.257Z,14.75
2022-12-03T07:22:44.347Z,14.40
2022-12-03T07:25:12.242Z,13.70
2022-12-03T07:27:39.401Z,14.10
2022-12-03T07:30:07.667Z,14.20
2022-12-03T07:32:35.045Z,13.48
2022-12-03T07:35:03.244Z,14.32
2022-12-03T07:37:30.257Z,14.70
2022-12-03T07:39:57.383Z,14.45
2022-12-03T07:42:24.466Z,15.25
2022-12-03T07:44:54.203Z,14.48
2022-12-03T07:47:21.708Z,14.18
2022-12-03T07:49:49.192Z,13.98
2022-12-03T07:52:16.548Z,13.75
2022-12-03T07:54:44.146Z,13.75
2022-12-03T07:57:11.258Z,14.68
2022-12-03T07:59:40.440Z,14.88
2022-12-03T08:02:07.798Z,14.55
2022-12-03T08:04:35.219Z,14.88
2022-12-03T08:07:02.331Z,14.15
2022-12-03T08:09:30.119Z,14.82
2022-12-03T08:12:01.871Z,16.27
2022-12-03T08:14:29.303Z,14.60
2022-12-03T08:16:56.343Z,16.45
2022-12-03T08:19:23.499Z,15.65
2022-12-03T08:21:50.623Z,16.42
2022-12-03T08:24:19.048Z,15.55
2022-12-03T08:26:47.521Z,15.98
2022-12-03T08:29:16.407Z,15.90
2022-12-03T08:31:48.436Z,16.45
2022-12-03T08:34:20.524Z,16.25
2022-12-03T08:36:49.031Z,16.27
2022-12-03T08:39:19.282Z,15.93
2022-12-03T08:42:10.699Z,14.10
2022-12-03T08:44:43.916Z,16.25
2022-12-03T08:47:13.230Z,15.15
2022-12-03T08:49:41.140Z,15.38
2022-12-03T08:52:16.660Z,15.30
2022-12-03T08:54:44.536Z,14.68
2022-12-03T08:57:24.809Z,14.05
2022-12-03T08:59:54.031Z,16.63
2022-12-03T09:02:27.386Z,15.90
2022-12-03T09:04:54.802Z,16.08
2022-12-03T09:07:22.386Z,16.35
2022-12-03T09:09:49.597Z,15.63
2022-12-03T09:12:16.903Z,15.57
2022-12-03T09:14:44.168Z,16.98
2022-12-03T09:17:11.454Z,16.73
2022-12-03T09:19:46.043Z,16.17
2022-12-03T09:22:15.205Z,15.63
2022-12-03T09:24:42.882Z,15.90
2022-12-03T09:27:10.098Z,17.35
2022-12-03T09:29:39.645Z,16.77
2022-12-03T09:32:07.080Z,16.38
2022-12-03T09:34:34.870Z,17.10
2022-12-03T09:37:02.643Z,16.38
2022-12-03T09:39:29.993Z,15.70
2022-12-03T09:41:57.450Z,16.50
2022-12-03T09:44:24.908Z,17.42
2022-12-03T09:46:55.271Z,15.43
2022-12-03T09:49:22.355Z,14.40
2022-12-03T09:51:49.408Z,14.85
2022-12-03T09:54:21.913Z,14.43
2022-12-03T09:56:49.376Z,14.43
2022-12-03T09:59:16.832Z,14.82
2022-12-03T10:01:44.152Z,14.60
2022-12-03T10:04:12.149Z,14.50
2022-12-03T10:06:45.319Z,14.93
2022-12-03T10:09:14.488Z,13.38
2022-12-03T10:11:41.649Z,14.65
2022-12-03T10:14:12.387Z,15.63
2022-12-03T10:16:42.749Z,15.57
2022-12-03T10:19:12.470Z,15.82
2022-12-03T10:21:42.896Z,14.43
2022-12-03T10:24:29.817Z,15.77
2022-12-03T10:27:01.375Z,15.63
2022-12-03T10:29:40.890Z,15.95
2022-12-03T10:32:13.068Z,15.23
2022-12-03T10:34:41.788Z,16.35
2022-12-03T10:37:08.922Z,14.77
2022-12-03T10:39:56.445Z,17.00
2022-12-03T10:42:26.148Z,15.52
2022-12-03T10:45:13.025Z,16.77
2022-12-03T10:47:40.368Z,16.23
2022-12-03T10:50:15.282Z,15.98
2022-12-03T10:52:42.495Z,16.15
2022-12-03T10:55:13.316Z,18.33
2022-12-03T10:57:45.314Z,16.40
2022-12-03T11:00:17.266Z,15.95
2022-12-03T11:02:44.423Z,16.08
2022-12-03T11:05:29.800Z,16.42
2022-12-03T11:07:57.469Z,15.50
2022-12-03T11:10:24.836Z,15.10
2022-12-03T11:13:10.419Z,17.75
2022-12-03T11:15:45.192Z,16.95
2022-12-03T11:18:12.872Z,18.00
2022-12-03T11:20:43.445Z,16.42
2022-12-03T11:23:11.471Z,16.05
2022-12-03T11:26:04.869Z,15.98
2022-12-03T11:28:32.923Z,16.38
2022-12-03T11:31:02.776Z,16.63
2022-12-03T11:33:37.707Z,13.23
2022-12-03T11:36:08.389Z,12.93
2022-12-03T11:38:41.402Z,14.82
2022-12-03T11:41:13.313Z,13.63
2022-12-03T11:43:56.585Z,12.50
2022-12-03T11:46:25.455Z,12.80
2022-12-03T11:48:53.888Z,12.70
2022-12-03T11:51:26.138Z,12.55
2022-12-03T11:53:57.149Z,19.20
2022-12-03T11:56:26.281Z,19.75
2022-12-03T11:59:01.157Z,16.35
2022-12-03T12:01:38.868Z,22.10
2022-12-03T12:04:07.324Z,13.05
2022-12-03T12:06:42.587Z,11.13
2022-12-03T12:09:10.181Z,16.25
2022-12-03T12:11:40.742Z,11.35
2022-12-03T12:14:14.384Z,11.07
2022-12-03T12:16:58.527Z,11.48
2022-12-03T12:19:47.354Z,10.05
2022-12-03T12:22:17.087Z,10.40
2022-12-03T12:24:47.483Z,11.02
2022-12-03T12:27:30.398Z,10.80
2022-12-03T12:30:01.901Z,12.70
2022-12-03T12:32:30.428Z,13.02
2022-12-03T12:35:14.761Z,15.15
2022-12-03T12:38:15.983Z,10.32
2022-12-03T12:40:49.484Z,11.73
2022-12-03T12:45:52.033Z,11.77
2022-12-03T12:48:25.611Z,12.15
2022-12-03T12:53:35.453Z,11.13
2022-12-03T12:56:08.525Z,11.07
2022-12-03T12:58:36.942Z,11.57
2022-12-03T13:01:11.218Z,10.63
2022-12-03T13:03:40.149Z,11.07
2022-12-03T13:06:10.774Z,10.95
2022-12-03T13:08:43.545Z,10.35
2022-12-03T13:11:32.310Z,10.63
2022-12-03T13:13:59.443Z,11.45
2022-12-03T13:16:32.124Z,13.50
2022-12-03T13:19:02.723Z,19.33
2022-12-03T13:21:39.988Z,16.98
2022-12-03T13:24:27.838Z,17.48
2022-12-03T13:26:55.229Z,16.38
2022-12-03T13:29:22.958Z,12.30
2022-12-03T13:31:53.167Z,12.02
2022-12-03T13:34:22.235Z,13.82
2022-12-03T13:36:57.117Z,11.55
2022-12-03T13:39:32.716Z,11.45
2022-12-03T13:42:27.647Z,12.38
2022-12-03T13:44:57.707Z,11.60
2022-12-03T13:47:25.808Z,11.98
2022-12-03T13:49:57.718Z,13.10
2022-12-03T13:52:26.219Z,12.10
2022-12-03T13:54:57.413Z,13.65
2022-12-03T13:57:24.845Z,12.40
2022-12-03T13:59:55.316Z,13.75
2022-12-03T14:02:22.781Z,14.80
2022-12-03T14:04:51.340Z,16.15
2022-12-03T14:07:20.558Z,15.55
2022-12-03T14:09:47.981Z,16.42
2022-12-03T14:12:27.398Z,17.92
2022-12-03T14:14:55.728Z,16.67
2022-12-03T14:17:23.155Z,17.05
2022-12-03T14:19:50.807Z,16.70
2022-12-03T14:22:23.490Z,15.45
2022-12-03T14:24:54.856Z,15.33
2022-12-03T14:27:22.415Z,17.00
2022-12-03T14:29:49.812Z,16.75
2022-12-03T14:32:17.913Z,16.35
2022-12-03T14:34:45.478Z,19.05
2022-12-03T14:37:12.750Z,20.60
2022-12-03T14:39:40.230Z,16.73
2022-12-03T14:42:13.990Z,17.65
2022-12-03T14:44:42.035Z,15.25
2022-12-03T14:47:24.675Z,16.27
2022-12-03T14:49:52.921Z,14.48
2022-12-03T14:52:20.718Z,15.20
2022-12-03T14:54:47.762Z,15.23
2022-12-03T14:57:15.885Z,14.98
2022-12-03T14:59:43.831Z,15.10
2022-12-03T15:02:11.667Z,14.32
2022-12-03T15:04:39.810Z,13.07
2022-12-03T15:07:07.461Z,12.32
2022-12-03T15:09:35.227Z,12.98
2022-12-03T15:12:02.707Z,13.65
2022-12-03T15:14:29.897Z,12.75
2022-12-03T15:16:57.073Z,12.07
2022-12-03T15:19:24.734Z,12.77
2022-12-03T15:21:55.223Z,12.82
2022-12-03T15:24:22.401Z,12.18
2022-12-03T15:26:49.602Z,12.48
2022-12-03T15:29:16.685Z,12.48
2022-12-03T15:31:44.832Z,12.95
2022-12-03T15:34:14.946Z,11.05
2022-12-03T15:36:45.261Z,11.53
2022-12-03T15:39:13.027Z,12.43
2022-12-03T15:41:40.194Z,11.40
2022-12-03T15:44:07.305Z,11.88
2022-12-03T15:46:34.794Z,12.48
2022-12-03T15:49:01.982Z,12.93
2022-12-03T15:51:29.218Z,12.60
2022-12-03T15:53:56.372Z,12.15
2022-12-03T15:56:23.838Z,13.32
2022-12-03T15:58:53.526Z,14.20
2022-12-03T16:01:21.071Z,13.07
2022-12-03T16:03:48.293Z,14.38
2022-12-03T16:06:18.354Z,15.60
2022-12-03T16:08:46.031Z,16.55
2022-12-03T16:11:13.089Z,15.23
2022-12-03T16:13:40.662Z,15.70
2022-12-03T16:16:08.865Z,17.65
2022-12-03T16:18:36.505Z,17.50
2022-12-03T16:21:03.848Z,18.80
2022-12-03T16:23:31.531Z,17.05
2022-12-03T16:25:58.670Z,17.80
2022-12-03T16:28:26.018Z,19.55
2022-12-03T16:30:57.307Z,21.10
2022-12-03T16:33:27.746Z,17.20
2022-12-03T16:35:55.744Z,19.63
2022-12-03T16:38:22.966Z,27.30
2022-12-03T16:40:50.387Z,19.02
2022-12-03T16:43:17.963Z,18.77
2022-12-03T16:46:20.822Z,18.23
2022-12-03T16:48:48.977Z,21.90
2022-12-03T16:51:16.624Z,19.48
2022-12-03T16:53:44.104Z,17.67
2022-12-03T16:56:11.660Z,19.23
2022-12-03T16:58:41.879Z,18.13
2022-12-03T17:01:09.750Z,17.65
2022-12-03T17:03:37.215Z,17.58
2022-12-03T17:06:04.866Z,17.52
2022-12-03T17:08:32.134Z,19.38
2022-12-03T17:10:59.641Z,17.35
2022-12-03T17:13:26.797Z,17.55
2022-12-03T17:15:55.847Z,18.80
2022-12-03T17:18:23.082Z,19.05
2022-12-03T17:20:53.602Z,17.20
2022-12-03T17:23:20.784Z,16.90
2022-12-03T17:25:48.000Z,18.08
2022-12-03T17:28:15.190Z,18.23
2022-12-03T17:30:45.811Z,17.88
2022-12-03T17:33:13.189Z,18.77
2022-12-03T17:35:40.496Z,18.30
2022-12-03T17:38:09.019Z,18.92
2022-12-03T17:40:39.747Z,18.08
2022-12-03T17:44:10.099Z,17.23
2022-12-03T17:46:10.162Z,18.00
2022-12-03T17:48:37.337Z,17.52
2022-12-03T17:51:07.103Z,18.02
2022-12-03T17:53:34.312Z,19.88
2022-12-03T17:56:01.570Z,18.35
2022-12-03T17:58:28.875Z,16.98
2022-12-03T18:01:01.837Z,17.80
2022-12-03T18:03:30.170Z,18.10
2022-12-03T18:05:57.563Z,20.33
2022-12-03T18:08:25.190Z,18.90
2022-12-03T18:10:55.104Z,19.00
2022-12-03T18:13:23.180Z,19.10
2022-12-03T18:15:50.693Z,17.95
2022-12-03T18:18:17.819Z,18.48
2022-12-03T18:20:45.432Z,18.88
2022-12-03T18:23:16.073Z,15.43
2022-12-03T18:25:43.453Z,19.40
2022-12-03T18:28:10.948Z,17.13
2022-12-03T18:30:38.486Z,17.05
2022-12-03T18:33:05.746Z,18.77
2022-12-03T18:35:35.757Z,18.42
2022-12-03T18:38:03.091Z,17.27
2022-12-03T18:40:30.153Z,17.70
2022-12-03T18:42:57.765Z,17.58
2022-12-03T18:45:25.034Z,16.40
2022-12-03T18:47:55.157Z,17.33
2022-12-03T18:50:25.523Z,17.73
2022-12-03T18:52:52.961Z,15.63
2022-12-03T18:55:20.684Z,15.23
2022-12-03T18:57:48.454Z,16.05
2022-12-03T19:00:15.930Z,17.60
2022-12-03T19:03:02.462Z,16.60
2022-12-03T19:05:31.141Z,16.67
2022-12-03T19:07:58.630Z,18.10
2022-12-03T19:10:26.019Z,16.67
2022-12-03T19:12:55.905Z,18.02
2022-12-03T19:15:24.041Z,18.45
2022-12-03T19:17:57.548Z,17.48
2022-12-03T19:20:24.643Z,16.58
2022-12-03T19:22:51.989Z,17.05
2022-12-03T19:25:19.122Z,17.17
2022-12-03T19:27:46.892Z,17.63
2022-12-03T19:30:14.477Z,17.48
2022-12-03T19:32:41.710Z,18.50
2022-12-03T19:35:13.251Z,17.70
2022-12-03T19:37:40.657Z,17.35
2022-12-03T19:40:10.479Z,17.45
2022-12-03T19:42:37.672Z,17.85
2022-12-03T19:45:04.989Z,17.77
2022-12-03T19:47:33.571Z,17.60
2022-12-03T19:50:00.974Z,16.95
2022-12-03T19:52:30.585Z,17.67
2022-12-03T19:55:00.973Z,18.30
2022-12-03T19:57:31.118Z,16.67
2022-12-03T20:00:01.478Z,18.05
2022-12-03T20:02:28.839Z,17.98
2022-12-03T20:05:01.920Z,16.98
2022-12-03T20:07:29.555Z,17.80
2022-12-03T20:09:59.460Z,17.90
2022-12-03T20:12:27.063Z,17.40
2022-12-03T20:14:54.622Z,17.40
2022-12-03T20:17:21.851Z,18.30
2022-12-03T20:19:50.120Z,16.88
2022-12-03T20:22:20.426Z,18.92
2022-12-03T20:24:50.688Z,17.65
2022-12-03T20:27:22.626Z,17.17
2022-12-03T20:29:50.723Z,18.35
2022-12-03T20:32:18.266Z,18.52
2022-12-03T20:34:45.698Z,19.20
2022-12-03T20:37:12.784Z,17.95
2022-12-03T20:39:46.814Z,18.10
2022-12-03T20:42:14.369Z,17.85
2022-12-03T20:44:41.701Z,18.90
2022-12-03T20:47:09.103Z,17.95
2022-12-03T20:49:39.061Z,18.02
2022-12-03T20:52:06.350Z,16.55
2022-12-03T20:54:33.923Z,17.35
2022-12-03T20:57:01.439Z,18.38
2022-12-03T20:59:28.609Z,18.17
2022-12-03T21:01:55.733Z,17.92
2022-12-03T21:04:22.935Z,17.30
2022-12-03T21:06:50.271Z,17.25
2022-12-03T21:09:17.936Z,17.58
2022-12-03T21:11:45.708Z,18.02
2022-12-03T21:14:14.549Z,17.98
2022-12-03T21:19:29.991Z,17.33
2022-12-03T21:21:57.651Z,18.10
2022-12-03T21:24:25.138Z,19.08
2022-12-03T21:26:55.448Z,18.08
2022-12-03T21:29:23.278Z,17.60
2022-12-03T21:31:50.560Z,18.13
2022-12-03T21:34:18.104Z,18.35
2022-12-03T21:36:45.290Z,18.85
2022-12-03T21:39:14.423Z,17.85
2022-12-03T21:42:18.836Z,17.83
2022-12-03T21:44:29.577Z,17.15
2022-12-03T21:47:10.838Z,18.20
2022-12-03T21:49:41.560Z,17.92
2022-12-03T21:52:09.388Z,18.15
2022-12-03T21:54:36.498Z,18.42
2022-12-03T21:57:03.529Z,18.45
2022-12-03T21:59:30.886Z,18.17
2022-12-03T22:01:58.100Z,18.23
2022-12-03T22:04:25.590Z,17.10
2022-12-03T22:06:55.502Z,16.60
2022-12-03T22:09:26.404Z,19.25
2022-12-03T22:11:56.840Z,19.95
2022-12-03T22:14:24.642Z,20.67
2022-12-03T22:16:54.030Z,17.27
2022-12-03T22:19:24.665Z,19.20
2022-12-03T22:21:55.302Z,18.85
2022-12-03T22:24:23.832Z,18.25
2022-12-03T22:26:53.476Z,18.08
2022-12-03T22:29:20.597Z,18.30
2022-12-03T22:31:47.724Z,17.92
2022-12-03T22:34:17.141Z,18.35
2022-12-03T22:36:44.446Z,18.63
2022-12-03T22:39:11.662Z,19.60
2022-12-03T22:41:39.601Z,18.98
2022-12-03T22:44:06.855Z,19.38
2022-12-03T22:46:36.403Z,18.30
2022-12-03T22:49:07.337Z,20.23
2022-12-03T22:51:36.273Z,19.73
2022-12-03T22:54:03.780Z,18.50
2022-12-03T22:56:31.174Z,18.05
2022-12-03T22:58:59.319Z,19.25
2022-12-03T23:01:33.541Z,19.55
2022-12-03T23:04:01.619Z,19.38
2022-12-03T23:06:29.643Z,19.20
2022-12-03T23:08:57.732Z,18.65
2022-12-03T23:11:25.224Z,20.40
2022-12-03T23:13:55.385Z,19.10
2022-12-03T23:16:24.287Z,19.05
2022-12-03T23:18:53.324Z,19.30
2022-12-03T23:21:29.474Z,20.27
2022-12-03T23:23:57.800Z,21.23
2022-12-03T23:26:27.465Z,19.30
2022-12-03T23:28:54.996Z,21.00
2022-12-03T23:31:30.065Z,20.50
2022-12-03T23:33:58.457Z,21.30
2022-12-03T23:36:27.358Z,21.88
2022-12-03T23:38:54.589Z,19.52
2022-12-03T23:41:23.621Z,20.27
2022-12-03T23:43:54.547Z,20.95
2022-12-03T23:46:23.418Z,20.25
2022-12-03T23:48:53.569Z,20.77
2022-12-03T23:51:24.636Z,20.00
2022-12-03T23:53:55.283Z,20.52
2022-12-03T23:56:24.233Z,21.85
2022-12-03T23:58:53.735Z,19.77
